createdAt,value
2023-02-08T00:01:07.877Z,-3.48
2023-02-08T00:03:36.054Z,-3.46
2023-02-08T00:06:03.910Z,-3.53
2023-02-08T00:08:33.136Z,-3.58
2023-02-08T00:11:00.785Z,-3.58
2023-02-08T00:13:28.686Z,-3.59
2023-02-08T00:15:56.560Z,-3.58
2023-02-08T00:18:25.621Z,-3.60
2023-02-08T00:20:55.855Z,-3.63
2023-02-08T00:23:23.710Z,-3.63
2023-02-08T00:25:51.990Z,-3.68
2023-02-08T00:28:20.482Z,-3.69
2023-02-08T00:30:49.563Z,-3.69
2023-02-08T00:33:17.178Z,-3.70
2023-02-08T00:35:46.518Z,-3.75
2023-02-08T00:38:14.406Z,-3.78
2023-02-08T00:40:42.499Z,-3.83
2023-02-08T00:43:10.511Z,-3.82
2023-02-08T00:45:38.123Z,-3.82
2023-02-08T00:48:05.710Z,-3.84
2023-02-08T00:50:33.738Z,-3.87
2023-02-08T00:53:02.826Z,-3.91
2023-02-08T00:55:30.891Z,-3.93
2023-02-08T00:57:58.507Z,-3.93
2023-02-08T01:00:26.645Z,-3.95
2023-02-08T01:02:54.354Z,-3.97
2023-02-08T01:05:22.541Z,-3.99
2023-02-08T01:07:50.187Z,-4.00
2023-02-08T01:10:19.358Z,-4.06
2023-02-08T01:12:46.940Z,-4.10
2023-02-08T01:15:14.979Z,-4.11
2023-02-08T01:17:42.604Z,-4.19
2023-02-08T01:20:11.779Z,-4.17
2023-02-08T01:22:39.398Z,-4.19
2023-02-08T01:25:07.839Z,-4.24
2023-02-08T01:27:38.753Z,-4.23
2023-02-08T01:30:07.765Z,-4.26
2023-02-08T01:32:36.065Z,-4.32
2023-02-08T01:35:04.052Z,-4.32
2023-02-08T01:37:31.849Z,-4.31
2023-02-08T01:39:59.811Z,-4.33
2023-02-08T01:42:27.570Z,-4.34
2023-02-08T01:45:32.034Z,-4.37
2023-02-08T01:48:07.567Z,-4.36
2023-02-08T01:50:44.104Z,-4.42
2023-02-08T01:53:12.417Z,-4.39
2023-02-08T01:55:46.200Z,-4.38
2023-02-08T01:58:16.319Z,-4.41
2023-02-08T02:00:46.092Z,-4.39
2023-02-08T02:03:14.735Z,-4.40
2023-02-08T02:05:45.259Z,-4.40
2023-02-08T02:08:14.198Z,-4.40
2023-02-08T02:10:44.178Z,-4.37
2023-02-08T02:13:14.665Z,-4.42
2023-02-08T02:15:46.317Z,-4.39
2023-02-08T02:18:23.156Z,-4.41
2023-02-08T02:21:15.326Z,-4.40
2023-02-08T02:24:14.713Z,-4.36
2023-02-08T02:27:11.054Z,-4.39
2023-02-08T02:30:12.731Z,-4.39
2023-02-08T02:32:55.191Z,-4.38
2023-02-08T02:35:30.808Z,-4.39
2023-02-08T02:38:10.068Z,-4.43
2023-02-08T02:40:48.602Z,-4.43
2023-02-08T02:43:40.008Z,-4.42
2023-02-08T02:46:17.084Z,-4.48
2023-02-08T02:48:50.920Z,-4.50
2023-02-08T02:51:25.165Z,-4.53
2023-02-08T02:53:56.676Z,-4.54
2023-02-08T02:56:28.911Z,-4.55
2023-02-08T02:58:59.670Z,-4.58
2023-02-08T03:01:30.110Z,-4.56
2023-02-08T03:03:59.510Z,-4.58
2023-02-08T03:06:42.823Z,-4.55
2023-02-08T03:09:47.778Z,-4.60
2023-02-08T03:12:31.060Z,-4.57
2023-02-08T03:15:04.104Z,-4.49
2023-02-08T03:17:40.436Z,-4.44
2023-02-08T03:20:11.838Z,-4.47
2023-02-08T03:22:46.652Z,-4.52
2023-02-08T03:25:21.663Z,-4.61
2023-02-08T03:27:58.171Z,-4.61
2023-02-08T03:30:32.321Z,-4.63
2023-02-08T03:33:06.777Z,-4.63
2023-02-08T03:35:41.365Z,-4.63
2023-02-08T03:38:12.309Z,-4.59
2023-02-08T03:40:43.006Z,-4.62
2023-02-08T03:43:17.096Z,-4.65
2023-02-08T03:45:50.671Z,-4.62
2023-02-08T03:48:21.226Z,-4.67
2023-02-08T03:50:53.799Z,-4.73
2023-02-08T03:53:24.359Z,-4.66
2023-02-08T03:55:57.008Z,-4.70
2023-02-08T03:58:29.938Z,-4.64
2023-02-08T04:01:02.923Z,-4.61
2023-02-08T04:03:32.413Z,-4.67
2023-02-08T04:06:01.554Z,-4.70
2023-02-08T04:08:29.493Z,-4.67
2023-02-08T04:10:57.159Z,-4.70
2023-02-08T04:13:24.764Z,-4.69
2023-02-08T04:15:52.412Z,-4.71
2023-02-08T04:18:20.496Z,-4.72
2023-02-08T04:20:48.103Z,-4.71
2023-02-08T04:23:17.699Z,-4.76
2023-02-08T04:25:45.369Z,-4.77
2023-02-08T04:28:13.938Z,-4.78
2023-02-08T04:30:42.019Z,-4.81
2023-02-08T04:33:11.827Z,-4.80
2023-02-08T04:35:39.462Z,-4.82
2023-02-08T04:38:07.257Z,-4.86
2023-02-08T04:40:36.296Z,-4.82
2023-02-08T04:43:04.285Z,-4.83
2023-02-08T04:45:32.897Z,-4.82
2023-02-08T04:48:02.550Z,-4.84
2023-02-08T04:50:30.379Z,-4.86
2023-02-08T04:52:58.313Z,-4.87
2023-02-08T04:55:26.305Z,-4.85
2023-02-08T04:57:55.260Z,-4.83
2023-02-08T05:00:23.064Z,-4.82
2023-02-08T05:02:54.618Z,-4.86
2023-02-08T05:05:22.719Z,-4.89
2023-02-08T05:07:51.380Z,-4.94
2023-02-08T05:10:19.530Z,-4.93
2023-02-08T05:12:47.423Z,-4.90
2023-02-08T05:15:16.327Z,-4.88
2023-02-08T05:17:44.187Z,-4.90
2023-02-08T05:20:13.925Z,-4.84
2023-02-08T05:22:41.859Z,-4.75
2023-02-08T05:25:10.767Z,-4.74
2023-02-08T05:27:38.561Z,-4.72
2023-02-08T05:30:07.609Z,-4.65
2023-02-08T05:32:36.644Z,-4.60
2023-02-08T05:35:04.627Z,-4.67
2023-02-08T05:37:32.203Z,-4.81
2023-02-08T05:40:00.198Z,-4.67
2023-02-08T05:42:28.036Z,-4.76
2023-02-08T05:44:55.619Z,-4.77
2023-02-08T05:47:23.211Z,-4.80
2023-02-08T05:49:52.452Z,-4.76
2023-02-08T05:52:20.043Z,-4.79
2023-02-08T05:54:47.961Z,-4.76
2023-02-08T05:57:15.559Z,-4.76
2023-02-08T05:59:43.503Z,-4.81
2023-02-08T06:02:11.289Z,-4.87
2023-02-08T06:04:39.324Z,-4.84
2023-02-08T06:07:08.300Z,-4.78
2023-02-08T06:09:36.441Z,-4.73
2023-02-08T06:12:04.232Z,-4.76
2023-02-08T06:14:32.638Z,-4.79
2023-02-08T06:17:00.285Z,-4.77
2023-02-08T06:19:28.643Z,-4.74
2023-02-08T06:21:56.453Z,-4.78
2023-02-08T06:24:25.741Z,-4.77
2023-02-08T06:26:53.307Z,-4.76
2023-02-08T06:29:20.892Z,-4.76
2023-02-08T06:31:48.822Z,-4.75
2023-02-08T06:34:16.681Z,-4.72
2023-02-08T06:36:45.340Z,-4.64
2023-02-08T06:39:12.984Z,-4.59
2023-02-08T06:41:41.917Z,-4.64
2023-02-08T06:44:09.504Z,-4.62
2023-02-08T06:46:37.100Z,-4.60
2023-02-08T06:49:05.044Z,-4.59
2023-02-08T06:51:32.658Z,-4.62
2023-02-08T06:54:00.296Z,-4.57
2023-02-08T06:56:27.888Z,-4.50
2023-02-08T06:58:57.150Z,-4.51
2023-02-08T07:01:25.282Z,-4.51
2023-02-08T07:03:52.906Z,-4.47
2023-02-08T07:06:21.294Z,-4.42
2023-02-08T07:08:48.964Z,-4.35
2023-02-08T07:11:19.800Z,-4.19
2023-02-08T07:13:48.684Z,-4.20
2023-02-08T07:16:18.880Z,-4.08
2023-02-08T07:18:46.672Z,-3.95
2023-02-08T07:21:14.632Z,-3.92
2023-02-08T07:23:42.556Z,-3.88
2023-02-08T07:26:12.614Z,-3.86
2023-02-08T07:28:40.396Z,-3.73
2023-02-08T07:31:08.985Z,-3.89
2023-02-08T07:33:38.403Z,-3.75
2023-02-08T07:36:07.927Z,-3.66
2023-02-08T07:38:36.717Z,-3.75
2023-02-08T07:41:06.004Z,-3.54
2023-02-08T07:43:35.354Z,-3.64
2023-02-08T07:46:08.719Z,-3.50
2023-02-08T07:48:40.159Z,-3.57
2023-02-08T07:51:09.972Z,-3.50
2023-02-08T07:53:38.004Z,-3.46
2023-02-08T07:56:06.509Z,-3.37
2023-02-08T07:58:34.106Z,-3.24
2023-02-08T08:01:12.522Z,-3.24
2023-02-08T08:03:50.565Z,-3.04
2023-02-08T08:06:19.010Z,-3.15
2023-02-08T08:08:47.634Z,-3.00
2023-02-08T08:11:15.677Z,-2.78
2023-02-08T08:13:43.587Z,-2.77
2023-02-08T08:16:11.699Z,-2.51
2023-02-08T08:18:39.324Z,-2.53
2023-02-08T08:21:08.957Z,-2.59
2023-02-08T08:23:37.184Z,-2.47
2023-02-08T08:26:09.135Z,-2.52
2023-02-08T08:28:37.198Z,-2.50
2023-02-08T08:31:05.180Z,-2.27
2023-02-08T08:33:32.812Z,-2.34
2023-02-08T08:36:01.033Z,-2.07
2023-02-08T08:38:29.940Z,-2.29
2023-02-08T08:40:58.111Z,-1.85
2023-02-08T08:43:25.761Z,-1.45
2023-02-08T08:45:54.003Z,-1.44
2023-02-08T08:48:21.600Z,-1.10
2023-02-08T08:50:50.390Z,-1.23
2023-02-08T08:53:19.117Z,-1.33
2023-02-08T08:55:48.544Z,-1.32
2023-02-08T08:58:16.518Z,-1.01
2023-02-08T09:00:44.121Z,-0.55
2023-02-08T09:03:12.486Z,-1.10
2023-02-08T09:05:40.194Z,-0.92
2023-02-08T09:08:07.873Z,-0.58
2023-02-08T09:10:35.455Z,-0.14
2023-02-08T09:13:05.358Z,0.44
2023-02-08T09:15:32.969Z,1.09
2023-02-08T09:18:00.889Z,1.09
2023-02-08T09:20:28.516Z,1.57
2023-02-08T09:22:56.961Z,2.34
2023-02-08T09:25:24.945Z,2.15
2023-02-08T09:27:53.079Z,1.97
2023-02-08T09:30:22.216Z,1.84
2023-02-08T09:32:50.427Z,3.13
2023-02-08T09:35:18.041Z,4.06
2023-02-08T09:37:46.268Z,3.97
2023-02-08T09:40:23.472Z,5.01
2023-02-08T09:42:59.228Z,4.29
2023-02-08T09:45:51.078Z,4.48
2023-02-08T09:48:29.635Z,4.14
2023-02-08T09:51:01.974Z,4.66
2023-02-08T09:53:34.323Z,3.95
2023-02-08T09:56:05.726Z,4.38
2023-02-08T09:58:40.687Z,4.18
2023-02-08T10:01:18.587Z,5.04
2023-02-08T10:03:48.306Z,4.63
2023-02-08T10:06:18.245Z,5.16
2023-02-08T10:08:47.704Z,4.15
2023-02-08T10:11:40.987Z,4.88
2023-02-08T10:14:23.473Z,4.06
2023-02-08T10:17:05.092Z,3.81
2023-02-08T10:19:50.946Z,4.02
2023-02-08T10:22:29.916Z,4.92
2023-02-08T10:25:17.932Z,5.23
2023-02-08T10:27:58.550Z,5.04
2023-02-08T10:30:33.543Z,5.19
2023-02-08T10:33:08.060Z,5.23
2023-02-08T10:35:38.852Z,5.09
2023-02-08T10:38:26.613Z,5.67
2023-02-08T10:40:59.703Z,5.23
2023-02-08T10:43:38.374Z,4.40
2023-02-08T10:46:13.110Z,4.43
2023-02-08T10:48:53.732Z,4.74
2023-02-08T10:51:22.712Z,6.19
2023-02-08T10:53:51.244Z,5.77
2023-02-08T10:56:32.201Z,5.66
2023-02-08T10:59:01.568Z,5.62
2023-02-08T11:01:29.841Z,6.20
2023-02-08T11:04:07.466Z,6.64
2023-02-08T11:06:35.081Z,6.62
2023-02-08T11:09:03.435Z,6.46
2023-02-08T11:11:36.842Z,6.77
2023-02-08T11:14:10.619Z,6.51
2023-02-08T11:16:39.266Z,6.47
2023-02-08T11:19:22.795Z,6.76
2023-02-08T11:21:52.994Z,6.85
2023-02-08T11:24:29.099Z,6.11
2023-02-08T11:26:57.330Z,5.94
2023-02-08T11:29:27.461Z,6.25
2023-02-08T11:32:01.080Z,5.25
2023-02-08T11:34:33.159Z,5.45
2023-02-08T11:37:03.603Z,6.48
2023-02-08T11:39:39.328Z,7.20
2023-02-08T11:42:08.232Z,7.33
2023-02-08T11:44:38.610Z,7.19
2023-02-08T11:47:08.637Z,6.89
2023-02-08T11:49:40.839Z,6.35
2023-02-08T11:52:21.163Z,6.11
2023-02-08T11:54:49.268Z,5.61
2023-02-08T11:57:20.350Z,5.07
2023-02-08T11:59:49.826Z,5.18
2023-02-08T12:02:35.809Z,4.67
2023-02-08T12:05:12.494Z,4.75
2023-02-08T12:07:53.961Z,4.38
2023-02-08T12:10:58.645Z,3.87
2023-02-08T12:13:51.342Z,4.29
2023-02-08T12:16:34.380Z,4.53
2023-02-08T12:19:35.504Z,4.71
2023-02-08T12:22:08.633Z,5.23
2023-02-08T12:24:49.127Z,5.22
2023-02-08T12:27:28.242Z,5.54
2023-02-08T12:30:08.338Z,5.17
2023-02-08T12:32:53.942Z,5.59
2023-02-08T12:36:01.467Z,4.80
2023-02-08T12:39:17.824Z,5.08
2023-02-08T12:41:56.372Z,5.23
2023-02-08T12:44:36.810Z,5.33
2023-02-08T12:47:18.871Z,5.64
2023-02-08T12:49:56.681Z,5.64
2023-02-08T12:52:34.373Z,5.23
2023-02-08T12:55:14.107Z,5.04
2023-02-08T12:57:45.676Z,5.35
2023-02-08T13:00:20.849Z,5.24
2023-02-08T13:02:57.482Z,5.02
2023-02-08T13:05:29.810Z,4.97
2023-02-08T13:08:04.639Z,4.72
2023-02-08T13:10:37.899Z,4.00
2023-02-08T13:13:13.398Z,4.23
2023-02-08T13:15:46.310Z,4.14
2023-02-08T13:18:18.693Z,4.57
2023-02-08T13:20:48.892Z,4.22
2023-02-08T13:23:25.533Z,3.89
2023-02-08T13:25:58.413Z,3.59
2023-02-08T13:28:27.879Z,3.50
2023-02-08T13:31:00.995Z,3.62
2023-02-08T13:33:35.833Z,3.43
2023-02-08T13:36:04.053Z,3.29
2023-02-08T13:38:34.764Z,3.16
2023-02-08T13:41:14.548Z,3.21
2023-02-08T13:43:46.845Z,3.26
2023-02-08T13:46:15.878Z,2.88
2023-02-08T13:48:46.148Z,2.90
2023-02-08T13:51:54.556Z,3.11
2023-02-08T13:54:22.525Z,3.18
2023-02-08T13:56:53.142Z,3.04
2023-02-08T13:59:42.226Z,2.89
2023-02-08T14:02:29.497Z,2.78
2023-02-08T14:05:31.027Z,2.83
2023-02-08T14:08:00.628Z,2.83
2023-02-08T14:10:37.796Z,2.67
2023-02-08T14:13:17.733Z,2.80
2023-02-08T14:15:45.768Z,2.77
2023-02-08T14:18:25.323Z,2.84
2023-02-08T14:21:02.540Z,3.12
2023-02-08T14:23:32.406Z,3.38
2023-02-08T14:26:07.148Z,3.28
2023-02-08T14:28:40.251Z,3.05
2023-02-08T14:31:11.059Z,2.76
2023-02-08T14:33:41.471Z,2.78
2023-02-08T14:36:24.586Z,2.64
2023-02-08T14:39:22.528Z,3.00
2023-02-08T14:41:57.189Z,2.95
2023-02-08T14:45:03.094Z,2.80
2023-02-08T14:47:55.054Z,2.70
2023-02-08T14:50:26.266Z,2.77
2023-02-08T14:53:06.793Z,2.61
2023-02-08T14:55:46.295Z,2.34
2023-02-08T14:58:27.947Z,2.25
2023-02-08T15:01:07.461Z,2.11
2023-02-08T15:03:37.733Z,2.55
2023-02-08T15:06:49.760Z,2.62
2023-02-08T15:09:21.573Z,2.30
2023-02-08T15:11:54.189Z,2.18
2023-02-08T15:14:22.609Z,2.02
2023-02-08T15:16:53.709Z,1.97
2023-02-08T15:19:25.262Z,1.69
2023-02-08T15:21:53.360Z,1.58
2023-02-08T15:24:23.398Z,1.54
2023-02-08T15:26:53.592Z,1.47
2023-02-08T15:29:30.028Z,1.55
2023-02-08T15:32:05.424Z,1.23
2023-02-08T15:34:33.327Z,1.09
2023-02-08T15:37:01.329Z,1.04
2023-02-08T15:39:35.171Z,0.85
2023-02-08T15:42:03.499Z,1.02
2023-02-08T15:44:33.305Z,1.28
2023-02-08T15:47:04.913Z,1.27
2023-02-08T15:49:36.508Z,1.53
2023-02-08T15:52:06.230Z,1.64
2023-02-08T15:54:34.107Z,1.41
2023-02-08T15:57:05.798Z,1.24
2023-02-08T15:59:37.703Z,1.29
2023-02-08T16:02:19.522Z,1.26
2023-02-08T16:04:48.784Z,1.18
2023-02-08T16:07:26.948Z,1.04
2023-02-08T16:09:55.382Z,0.89
2023-02-08T16:12:24.699Z,1.06
2023-02-08T16:14:55.993Z,0.59
2023-02-08T16:17:44.156Z,0.60
2023-02-08T16:20:33.812Z,0.63
2023-02-08T16:23:03.600Z,0.28
2023-02-08T16:25:44.407Z,0.34
2023-02-08T16:28:26.995Z,0.23
2023-02-08T16:30:55.773Z,0.18
2023-02-08T16:33:24.197Z,0.13
2023-02-08T16:35:53.428Z,0.15
2023-02-08T16:38:23.674Z,0.09
2023-02-08T16:40:53.615Z,-0.02
2023-02-08T16:43:26.626Z,-0.04
2023-02-08T16:46:25.193Z,-0.04
2023-02-08T16:48:55.326Z,-0.23
2023-02-08T16:51:26.330Z,-0.20
2023-02-08T16:53:57.845Z,-0.22
2023-02-08T16:56:25.720Z,-0.34
2023-02-08T16:58:53.357Z,-0.41
2023-02-08T17:01:23.804Z,-0.36
2023-02-08T17:03:52.928Z,-0.35
2023-02-08T17:06:30.137Z,-0.46
2023-02-08T17:08:58.296Z,-0.53
2023-02-08T17:11:26.312Z,-0.49
2023-02-08T17:13:54.660Z,-0.47
2023-02-08T17:16:24.910Z,-0.42
2023-02-08T17:18:53.522Z,-0.46
2023-02-08T17:21:21.169Z,-0.43
2023-02-08T17:23:50.770Z,-0.44
2023-02-08T17:26:23.002Z,-0.37
2023-02-08T17:28:51.531Z,-0.41
2023-02-08T17:31:19.429Z,-0.44
2023-02-08T17:33:48.250Z,-0.36
2023-02-08T17:36:16.552Z,-0.51
2023-02-08T17:38:46.951Z,-0.50
2023-02-08T17:41:17.927Z,-0.48
2023-02-08T17:43:46.267Z,-0.51
2023-02-08T17:46:16.958Z,-0.64
2023-02-08T17:48:48.126Z,-0.59
2023-02-08T17:51:18.949Z,-0.48
2023-02-08T17:53:48.053Z,-0.49
2023-02-08T17:56:18.783Z,-0.50
2023-02-08T17:58:51.288Z,-0.51
2023-02-08T18:01:23.720Z,-0.52
2023-02-08T18:03:52.436Z,-0.58
2023-02-08T18:06:21.080Z,-0.63
2023-02-08T18:08:48.913Z,-0.62
2023-02-08T18:11:20.259Z,-0.57
2023-02-08T18:13:50.699Z,-0.66
2023-02-08T18:16:20.788Z,-0.64
2023-02-08T18:18:49.190Z,-0.64
2023-02-08T18:21:19.560Z,-0.69
2023-02-08T18:23:49.370Z,-0.73
2023-02-08T18:26:20.928Z,-0.75
2023-02-08T18:28:49.149Z,-0.77
2023-02-08T18:31:20.069Z,-0.90
2023-02-08T18:33:49.587Z,-0.97
2023-02-08T18:36:17.859Z,-1.10
2023-02-08T18:38:47.656Z,-1.21
2023-02-08T18:41:19.890Z,-1.23
2023-02-08T18:43:48.089Z,-1.28
2023-02-08T18:46:18.811Z,-1.25
2023-02-08T18:48:47.651Z,-1.22
2023-02-08T18:51:19.528Z,-1.34
2023-02-08T18:53:51.026Z,-1.22
2023-02-08T18:56:23.881Z,-1.29
2023-02-08T18:58:52.878Z,-1.37
2023-02-08T19:01:23.064Z,-1.38
2023-02-08T19:03:52.824Z,-1.51
2023-02-08T19:06:24.790Z,-1.56
2023-02-08T19:08:55.091Z,-1.62
2023-02-08T19:11:26.191Z,-1.66
2023-02-08T19:13:57.947Z,-1.74
2023-02-08T19:16:27.582Z,-1.82
2023-02-08T19:18:58.512Z,-1.85
2023-02-08T19:21:26.099Z,-1.88
2023-02-08T19:23:55.098Z,-1.89
2023-02-08T19:26:26.074Z,-1.96
2023-02-08T19:28:57.046Z,-1.99
2023-02-08T19:31:25.967Z,-2.06
2023-02-08T19:33:58.464Z,-2.11
2023-02-08T19:36:28.404Z,-2.14
2023-02-08T19:38:59.090Z,-2.19
2023-02-08T19:41:32.210Z,-2.21
2023-02-08T19:44:00.209Z,-2.22
2023-02-08T19:46:29.342Z,-2.24
2023-02-08T19:49:00.159Z,-2.30
2023-02-08T19:51:28.889Z,-2.34
2023-02-08T19:53:57.873Z,-2.31
2023-02-08T19:56:25.472Z,-2.33
2023-02-08T19:58:54.842Z,-2.32
2023-02-08T20:01:23.833Z,-2.37
2023-02-08T20:03:54.411Z,-2.37
2023-02-08T20:06:24.732Z,-2.42
2023-02-08T20:08:52.356Z,-2.48
2023-02-08T20:11:23.253Z,-2.51
2023-02-08T20:13:52.011Z,-2.54
2023-02-08T20:16:22.863Z,-2.57
2023-02-08T20:18:51.431Z,-2.60
2023-02-08T20:21:20.018Z,-2.62
2023-02-08T20:23:48.644Z,-2.68
2023-02-08T20:26:19.174Z,-2.70
2023-02-08T20:28:50.203Z,-2.73
2023-02-08T20:31:19.595Z,-2.79
2023-02-08T20:33:49.197Z,-2.87
2023-02-08T20:36:18.988Z,-2.97
2023-02-08T20:38:48.960Z,-3.03
2023-02-08T20:41:17.532Z,-3.08
2023-02-08T20:43:45.889Z,-3.16
2023-02-08T20:46:16.638Z,-3.18
2023-02-08T20:48:44.361Z,-3.21
2023-02-08T20:51:15.421Z,-3.22
2023-02-08T20:53:44.925Z,-3.20
2023-02-08T20:56:15.003Z,-3.21
2023-02-08T20:58:43.234Z,-3.22
2023-02-08T21:01:15.591Z,-3.26
2023-02-08T21:03:43.629Z,-3.29
2023-02-08T21:06:14.977Z,-3.31
2023-02-08T21:08:44.251Z,-3.36
2023-02-08T21:11:12.542Z,-3.38
2023-02-08T21:13:40.413Z,-3.39
2023-02-08T21:16:09.648Z,-3.37
2023-02-08T21:18:38.303Z,-3.37
2023-02-08T21:21:06.832Z,-3.41
2023-02-08T21:23:37.056Z,-3.44
2023-02-08T21:26:07.197Z,-3.49
2023-02-08T21:28:35.779Z,-3.53
2023-02-08T21:31:06.835Z,-3.62
2023-02-08T21:33:35.816Z,-3.59
2023-02-08T21:36:04.953Z,-3.58
2023-02-08T21:38:32.770Z,-3.60
2023-02-08T21:41:07.377Z,-3.64
2023-02-08T21:43:35.306Z,-3.66
2023-02-08T21:46:04.205Z,-3.65
2023-02-08T21:48:52.249Z,-3.65
2023-02-08T21:51:38.797Z,-3.63
2023-02-08T21:54:24.242Z,-3.63
2023-02-08T21:56:53.458Z,-3.67
2023-02-08T21:59:21.062Z,-3.69
2023-02-08T22:01:48.723Z,-3.77
2023-02-08T22:04:16.309Z,-3.88
2023-02-08T22:06:50.200Z,-3.98
2023-02-08T22:09:18.644Z,-4.00
2023-02-08T22:11:48.097Z,-4.06
2023-02-08T22:14:17.642Z,-4.08
2023-02-08T22:16:45.243Z,-4.07
2023-02-08T22:19:12.828Z,-4.09
2023-02-08T22:21:40.578Z,-4.03
2023-02-08T22:24:08.685Z,-3.97
2023-02-08T22:26:36.631Z,-3.87
2023-02-08T22:29:04.356Z,-3.78
2023-02-08T22:31:33.750Z,-3.77
2023-02-08T22:34:01.428Z,-3.79
2023-02-08T22:36:29.689Z,-3.80
2023-02-08T22:38:57.340Z,-3.80
2023-02-08T22:41:25.411Z,-3.86
2023-02-08T22:43:54.181Z,-4.17
2023-02-08T22:46:22.238Z,-4.39
2023-02-08T22:48:51.574Z,-4.40
2023-02-08T22:51:21.589Z,-4.37
2023-02-08T22:53:49.433Z,-4.42
2023-02-08T22:56:18.450Z,-4.44
2023-02-08T22:58:46.860Z,-4.49
2023-02-08T23:01:16.679Z,-4.53
2023-02-08T23:03:45.090Z,-4.56
2023-02-08T23:06:17.126Z,-4.59
2023-02-08T23:08:45.769Z,-4.59
2023-02-08T23:11:14.489Z,-4.52
2023-02-08T23:13:42.489Z,-4.50
2023-02-08T23:16:13.165Z,-4.51
2023-02-08T23:18:41.334Z,-4.53
2023-02-08T23:21:10.331Z,-4.53
2023-02-08T23:23:40.034Z,-4.55
2023-02-08T23:26:08.352Z,-4.57
2023-02-08T23:28:37.074Z,-4.60
2023-02-08T23:31:05.930Z,-4.64
2023-02-08T23:33:34.363Z,-4.73
2023-02-08T23:36:06.033Z,-4.81
2023-02-08T23:38:33.988Z,-5.05
2023-02-08T23:41:04.985Z,-5.10
2023-02-08T23:43:33.375Z,-5.12
2023-02-08T23:46:00.967Z,-5.12
2023-02-08T23:48:28.880Z,-5.12
2023-02-08T23:50:59.626Z,-5.10
2023-02-08T23:53:30.501Z,-5.09
2023-02-08T23:56:11.169Z,-5.07
2023-02-08T23:58:39.291Z,-5.02
